Time;durP1;ratioP1;P1;durP2;ratioP2;P2;SDS_P1;SDS_P2;PMS_P1;PMS_P2;Temp;Humidity;BMP_temperature;BMP_pressure;BME280_temperature;BME280_humidity;BME280_pressure;Samples;Min_cycle;Max_cycle;Signal;HPM_P1;HPM_P2
2022/01/06 00:00:33;;;;;;;9.40;4.85;;;;;;;0.92;71.54;97846.91;6055667;23;20140;-81
2022/01/06 00:02:59;;;;;;;7.97;4.40;;;;;;;0.55;70.94;97781.22;6080376;23;20029;-82
2022/01/06 00:05:25;;;;;;;6.90;4.13;;;;;;;0.48;71.58;97764.16;6037252;23;20023;-84
2022/01/06 00:07:51;;;;;;;8.63;4.15;;;;;;;0.55;71.13;97783.78;6087050;23;20045;-82
2022/01/06 00:10:17;;;;;;;10.50;4.80;;;;;;;0.90;71.78;97826.38;6084006;23;20045;-84
2022/01/06 00:12:49;;;;;;;7.25;3.85;;;;;;;0.78;71.50;97827.25;6053819;23;20018;-82
2022/01/06 00:25:44;;;;;;;7.97;4.32;;;;;;;0.28;71.87;97703.59;6054900;23;20042;-82
2022/01/06 00:28:10;;;;;;;6.20;3.78;;;;;;;0.51;71.49;97759.91;6071339;23;20469;-82
2022/01/06 00:30:37;;;;;;;7.57;3.95;;;;;;;0.67;71.63;97776.06;6045770;23;20372;-82
2022/01/06 00:33:03;;;;;;;7.80;4.20;;;;;;;1.13;72.03;97851.97;6065193;23;20027;-81
2022/01/06 00:35:29;;;;;;;4.80;3.38;;;;;;;0.64;71.85;97793.16;6087599;23;20038;-83
2022/01/06 00:37:55;;;;;;;5.72;3.60;;;;;;;1.14;71.86;97869.06;6045697;23;20033;-83
2022/01/06 00:40:20;;;;;;;6.13;3.85;;;;;;;0.68;71.61;97776.94;6068800;23;20030;-82
2022/01/06 00:42:46;;;;;;;7.22;3.92;;;;;;;0.79;72.20;97790.56;6070038;23;20018;-83
2022/01/06 00:45:12;;;;;;;8.50;3.85;;;;;;;1.26;72.07;97860.50;6068679;23;20427;-82
2022/01/06 00:47:38;;;;;;;7.43;4.40;;;;;;;0.87;71.86;97804.22;6021682;23;20092;-82
2022/01/06 00:50:04;;;;;;;7.88;3.90;;;;;;;0.57;72.37;97731.72;6068750;23;20460;-83
2022/01/06 00:52:30;;;;;;;7.07;4.10;;;;;;;1.08;72.43;97812.69;6045362;23;20023;-81
2022/01/06 00:54:56;;;;;;;6.53;3.95;;;;;;;0.66;72.04;97759.03;6043860;23;20011;-81
2022/01/06 00:57:22;;;;;;;8.65;4.22;;;;;;;0.97;72.24;97799.91;5997153;23;20118;-82
2022/01/06 00:59:48;;;;;;;8.23;4.13;;;;;;;1.46;71.83;97868.13;6044343;23;20023;-82
2022/01/06 01:02:13;;;;;;;7.60;4.00;;;;;;;1.47;72.05;97880.06;5997706;23;20029;-82
2022/01/06 01:04:39;;;;;;;6.55;3.53;;;;;;;1.09;71.94;97806.72;6070733;23;20019;-82
2022/01/06 01:07:05;;;;;;;6.60;3.75;;;;;;;0.66;72.00;97735.13;6068204;23;20362;-84
2022/01/06 01:09:31;;;;;;;6.20;3.72;;;;;;;0.88;72.06;97769.22;6070099;23;20372;-82
2022/01/06 01:12:01;;;;;;;6.68;4.00;;;;;;;1.44;72.55;97851.88;6067438;23;20444;-84
2022/01/06 01:14:30;;;;;;;8.35;4.10;;;;;;;1.04;72.25;97780.25;6069941;23;20011;-83
2022/01/06 01:16:59;;;;;;;8.18;3.42;;;;;;;1.67;72.10;97873.19;6068381;23;20021;-81
2022/01/06 01:19:26;;;;;;;6.68;3.83;;;;;;;1.14;72.21;97783.66;6068358;23;20373;-82
2022/01/06 01:21:53;;;;;;;6.15;3.70;;;;;;;1.59;72.03;97856.09;6046046;23;20508;-81
2022/01/06 01:24:20;;;;;;;5.30;3.20;;;;;;;1.62;72.44;97865.50;6054396;23;20033;-82
2022/01/06 01:26:46;;;;;;;5.63;3.63;;;;;;;1.27;72.15;97787.03;6046892;23;20021;-82
2022/01/06 01:29:16;;;;;;;6.05;3.47;;;;;;;1.44;72.37;97812.59;6031057;23;20042;-84
2022/01/06 01:31:47;;;;;;;5.72;3.60;;;;;;;1.25;72.14;97768.22;6081645;23;20015;-84
2022/01/06 01:34:15;;;;;;;6.82;3.67;;;;;;;1.83;72.61;97866.28;6076788;23;20025;-83
2022/01/06 01:36:43;;;;;;;6.10;3.45;;;;;;;0.82;72.30;97700.09;6046031;23;20022;-83
2022/01/06 01:39:09;;;;;;;4.95;2.80;;;;;;;0.98;72.01;97731.63;6045397;23;20014;-83
2022/01/06 01:41:35;;;;;;;6.18;3.50;;;;;;;1.46;72.44;97813.44;6045500;23;20090;-82
2022/01/06 01:44:05;;;;;;;8.77;3.65;;;;;;;1.58;72.04;97818.50;6068357;23;20047;-83
2022/01/06 01:46:41;;;;;;;8.45;3.78;;;;;;;0.53;72.49;97660.06;6084110;23;20027;-81
2022/01/06 01:51:39;;;;;;;6.53;3.35;;;;;;;1.49;72.17;97805.75;6074751;23;20042;-84
2022/01/06 01:54:05;;;;;;;5.47;3.40;;;;;;;1.20;72.04;97763.13;6069961;23;20018;-84
2022/01/06 01:56:31;;;;;;;4.20;2.70;;;;;;;1.35;72.40;97772.47;6069625;23;20453;-83
2022/01/06 01:58:58;;;;;;;4.47;2.70;;;;;;;0.83;72.17;97692.38;6071178;23;20449;-82
2022/01/06 02:01:23;;;;;;;4.68;2.90;;;;;;;1.48;71.82;97797.19;6071506;23;20026;-82
2022/01/06 02:03:49;;;;;;;5.47;3.10;;;;;;;0.88;72.38;97700.91;6029978;23;20025;-81
2022/01/06 02:06:15;;;;;;;4.20;3.05;;;;;;;1.87;72.08;97863.69;6040585;23;20122;-81
2022/01/06 02:08:41;;;;;;;5.28;3.15;;;;;;;1.82;71.82;97859.44;6088476;23;20105;-83
2022/01/06 02:11:07;;;;;;;4.20;2.80;;;;;;;1.65;72.20;97840.72;6074635;23;20023;-81
2022/01/06 02:13:46;;;;;;;4.38;3.00;;;;;;;1.11;72.07;97748.66;6046734;23;20042;-85
2022/01/06 02:16:12;;;;;;;4.43;2.78;;;;;;;1.14;72.22;97747.78;6046905;23;20038;-84
2022/01/06 02:18:38;;;;;;;5.10;2.95;;;;;;;1.33;71.68;97792.13;6076717;23;20018;-83
2022/01/06 02:21:04;;;;;;;5.90;3.13;;;;;;;1.17;71.77;97765.69;6031436;23;20019;-83
2022/01/06 02:23:30;;;;;;;4.30;3.03;;;;;;;0.83;71.99;97710.31;6080625;23;20041;-83
2022/01/06 02:25:55;;;;;;;4.78;2.80;;;;;;;1.88;71.86;97870.53;6053685;23;20026;-82
2022/01/06 02:28:25;;;;;;;5.28;3.13;;;;;;;1.72;72.01;97845.81;6045655;23;20026;-84
2022/01/06 02:30:54;;;;;;;5.82;2.90;;;;;;;1.33;71.94;97787.00;6022225;23;20098;-82
2022/01/06 02:33:21;;;;;;;5.38;2.95;;;;;;;1.25;71.95;97776.78;6044484;23;20023;-84
2022/01/06 02:35:48;;;;;;;4.30;2.38;;;;;;;1.12;72.31;97763.16;6069745;23;20120;-83
2022/01/06 02:38:15;;;;;;;4.30;2.90;;;;;;;1.41;72.02;97810.91;6048859;23;20341;-83
2022/01/06 02:40:41;;;;;;;5.22;2.90;;;;;;;1.45;72.67;97817.69;6069907;23;20065;-84
2022/01/06 02:43:07;;;;;;;4.80;3.00;;;;;;;1.58;72.25;97843.31;6045568;23;20019;-83
2022/01/06 02:45:35;;;;;;;5.43;3.00;;;;;;;1.17;72.08;97783.63;6003518;23;20038;-81
2022/01/06 02:48:08;;;;;;;4.45;2.80;;;;;;;1.71;72.18;97874.88;6050634;23;20022;-83
2022/01/06 02:50:37;;;;;;;4.80;2.83;;;;;;;0.35;71.82;97650.72;6072018;23;20045;-82
2022/01/06 02:53:04;;;;;;;4.63;2.80;;;;;;;1.54;72.32;97854.44;6030122;23;20006;-82
2022/01/06 02:55:31;;;;;;;5.18;3.13;;;;;;;1.35;72.29;97818.59;6069805;23;20026;-83
2022/01/06 02:57:57;;;;;;;5.60;3.13;;;;;;;1.14;72.15;97781.94;6075025;23;20022;-83
2022/01/06 03:00:23;;;;;;;5.13;3.00;;;;;;;1.86;72.14;97903.03;6017743;23;20027;-82
2022/01/06 03:02:48;;;;;;;6.78;3.40;;;;;;;1.36;72.70;97812.63;6041952;23;20019;-85
2022/01/06 03:05:16;;;;;;;5.45;3.15;;;;;;;1.87;72.33;97889.34;6001915;23;20030;-82
2022/01/06 03:07:43;;;;;;;5.22;3.17;;;;;;;0.85;72.33;97744.47;6003741;23;20042;-85
2022/01/06 03:10:12;;;;;;;5.18;3.40;;;;;;;1.32;72.48;97806.66;6042660;23;20046;-84
2022/01/06 03:12:43;;;;;;;5.13;2.92;;;;;;;1.27;72.16;97798.13;6040582;23;20023;-83
2022/01/06 03:15:17;;;;;;;4.55;2.90;;;;;;;1.24;72.14;97807.53;6041916;23;20196;-84
2022/01/06 03:17:46;;;;;;;5.53;3.05;;;;;;;1.79;72.14;97891.94;6040745;23;20078;-84
2022/01/06 03:20:15;;;;;;;5.75;3.40;;;;;;;1.44;72.21;97841.63;6065304;23;20019;-85
2022/01/06 03:22:42;;;;;;;5.13;2.92;;;;;;;1.75;72.57;97900.50;6042055;23;20089;-84
2022/01/06 03:25:09;;;;;;;5.57;3.60;;;;;;;1.35;72.27;97841.69;6016423;23;20454;-83
2022/01/06 03:27:35;;;;;;;4.05;2.72;;;;;;;0.94;71.95;97752.97;6065601;23;20045;-84
2022/01/06 03:30:05;;;;;;;4.22;3.20;;;;;;;0.95;72.22;97745.28;6040790;23;20369;-83
2022/01/06 03:32:31;;;;;;;5.05;2.90;;;;;;;1.91;72.23;97900.44;6040046;23;20034;-84
2022/01/06 03:34:57;;;;;;;5.30;3.13;;;;;;;0.37;72.17;97638.78;6042562;23;20046;-84
2022/01/06 03:37:23;;;;;;;4.57;3.10;;;;;;;1.92;72.28;97894.44;6050622;23;20019;-84
2022/01/06 03:39:49;;;;;;;4.35;2.65;;;;;;;1.43;72.17;97810.88;6025292;23;20564;-86
2022/01/06 03:42:15;;;;;;;5.88;3.30;;;;;;;1.35;72.30;97801.50;6019242;23;20015;-85
2022/01/06 03:44:41;;;;;;;4.75;2.92;;;;;;;1.98;72.45;97908.97;6040547;23;20055;-84
2022/01/06 03:47:07;;;;;;;4.90;3.03;;;;;;;1.99;72.29;97891.00;6018180;23;20046;-84
2022/01/06 03:49:33;;;;;;;6.03;3.30;;;;;;;1.06;72.17;97742.69;6043323;23;20488;-82
2022/01/06 03:51:59;;;;;;;5.57;3.13;;;;;;;0.86;71.95;97699.22;6044651;23;20019;-84
2022/01/06 03:54:25;;;;;;;4.55;2.75;;;;;;;0.79;72.48;97706.06;6072926;23;20038;-85
2022/01/06 03:56:51;;;;;;;5.55;3.10;;;;;;;0.55;72.61;97648.94;6030375;23;20030;-83
2022/01/06 03:59:18;;;;;;;5.22;3.20;;;;;;;1.88;72.24;97856.84;6057059;23;20008;-84
2022/01/06 04:01:45;;;;;;;4.13;2.83;;;;;;;2.02;72.56;97891.00;6059124;23;20030;-83
2022/01/06 04:04:13;;;;;;;5.80;3.25;;;;;;;1.99;72.39;97885.88;6065785;23;20021;-85
2022/01/06 04:06:39;;;;;;;4.68;2.80;;;;;;;1.10;72.29;97730.72;6068471;23;20021;-83
2022/01/06 04:09:06;;;;;;;5.70;3.45;;;;;;;0.90;71.93;97723.94;6027879;23;20046;-82
2022/01/06 04:11:32;;;;;;;4.38;2.72;;;;;;;1.84;71.91;97868.81;6062472;23;20023;-84
2022/01/06 04:13:58;;;;;;;5.40;2.95;;;;;;;1.08;72.40;97753.78;6093181;23;20014;-84
2022/01/06 04:16:26;;;;;;;4.45;2.95;;;;;;;0.60;72.24;97672.00;6045593;23;20026;-83
2022/01/06 04:18:52;;;;;;;5.05;3.00;;;;;;;1.52;72.48;97816.00;6092913;23;20026;-82
2022/01/06 04:21:18;;;;;;;6.00;2.85;;;;;;;2.01;71.90;97901.25;6087271;23;20060;-83
2022/01/06 04:23:47;;;;;;;4.63;2.90;;;;;;;1.63;72.41;97851.84;6060829;23;20025;-84
2022/01/06 04:26:16;;;;;;;5.68;2.90;;;;;;;1.75;71.99;97851.78;6060902;23;20022;-84
2022/01/06 04:28:51;;;;;;;5.60;3.10;;;;;;;2.04;72.73;97896.09;6066116;23;20117;-85
2022/01/06 04:31:17;;;;;;;5.15;2.92;;;;;;;1.00;72.59;97735.00;6066197;23;20002;-83
2022/01/06 04:33:44;;;;;;;5.13;3.22;;;;;;;2.02;71.98;97910.63;6045196;23;20007;-84
2022/01/06 04:36:10;;;;;;;6.97;3.42;;;;;;;2.00;72.56;97892.72;6067655;23;20015;-84
2022/01/06 04:38:36;;;;;;;5.13;3.10;;;;;;;2.00;72.18;97897.84;6092189;23;20041;-84
2022/01/06 04:41:04;;;;;;;4.07;2.75;;;;;;;1.48;72.80;97824.53;6067908;23;20026;-84
2022/01/06 04:43:30;;;;;;;7.60;2.88;;;;;;;1.06;72.45;97742.69;6068010;23;19999;-83
2022/01/06 04:45:58;;;;;;;4.35;3.20;;;;;;;1.67;72.53;97840.69;6067912;23;20007;-84
2022/01/06 04:48:25;;;;;;;6.97;3.20;;;;;;;0.58;72.76;97671.16;6069407;23;20026;-86
2022/01/06 04:50:51;;;;;;;7.10;3.67;;;;;;;1.16;72.04;97767.44;6090561;23;20023;-85
2022/01/06 04:53:16;;;;;;;6.97;3.75;;;;;;;1.72;72.64;97838.97;6074458;23;20029;-86
2022/01/06 04:55:42;;;;;;;9.65;4.35;;;;;;;2.08;72.58;97892.66;6049400;23;20512;-84
2022/01/06 04:58:08;;;;;;;8.45;3.78;;;;;;;1.27;72.56;97740.88;6037920;23;20007;-83
2022/01/06 05:00:34;;;;;;;7.40;3.22;;;;;;;1.56;72.17;97799.72;6065017;23;20070;-85
2022/01/06 05:03:00;;;;;;;5.78;3.17;;;;;;;1.64;72.27;97787.72;6062873;23;20022;-86
2022/01/06 05:05:29;;;;;;;4.60;2.30;;;;;;;1.55;72.05;97792.88;6048461;23;20041;-83
2022/01/06 05:07:55;;;;;;;6.07;2.38;;;;;;;1.87;71.55;97856.00;6028578;23;20014;-85
2022/01/06 05:10:21;;;;;;;4.38;2.20;;;;;;;2.02;71.64;97869.59;6073595;23;20105;-84
2022/01/06 05:12:47;;;;;;;3.17;2.00;;;;;;;1.96;72.08;97870.47;6048391;23;20464;-85
2022/01/06 05:15:14;;;;;;;3.00;1.80;;;;;;;1.82;71.79;97852.59;6085887;23;20035;-84
2022/01/06 05:17:41;;;;;;;2.30;1.48;;;;;;;1.67;71.63;97840.69;6038857;23;20357;-84
2022/01/06 05:20:09;;;;;;;3.38;1.40;;;;;;;2.30;71.79;97931.91;6049460;23;20018;-85
2022/01/06 05:22:41;;;;;;;2.97;1.52;;;;;;;1.97;71.37;97882.44;6042672;23;20172;-84
2022/01/06 05:25:08;;;;;;;2.75;1.40;;;;;;;1.92;71.55;97887.63;6067397;23;20015;-85
2022/01/06 05:27:34;;;;;;;3.70;1.42;;;;;;;1.56;71.38;97834.75;6045846;23;20018;-84
2022/01/06 05:30:00;;;;;;;2.03;1.30;;;;;;;1.28;71.29;97786.16;6052207;23;20038;-87
2022/01/06 05:32:26;;;;;;;3.90;1.35;;;;;;;2.02;71.64;97903.81;6045683;23;20553;-86
2022/01/06 05:34:52;;;;;;;3.90;1.73;;;;;;;1.57;71.38;97841.59;6027905;23;20097;-86
2022/01/06 05:37:18;;;;;;;3.70;1.60;;;;;;;1.65;71.28;97835.56;6071426;23;20073;-86
2022/01/06 05:39:44;;;;;;;4.35;1.50;;;;;;;1.56;71.04;97824.50;6073711;23;20026;-85
2022/01/06 05:42:13;;;;;;;3.05;1.38;;;;;;;1.61;70.78;97835.59;6047555;23;20098;-85
2022/01/06 05:44:41;;;;;;;3.08;1.60;;;;;;;1.29;70.84;97788.75;6047691;23;20046;-87
2022/01/06 05:47:10;;;;;;;3.28;1.75;;;;;;;1.97;70.52;97902.97;6002866;23;20477;-84
2022/01/06 05:49:36;;;;;;;4.85;2.42;;;;;;;1.63;70.44;97846.72;6079899;23;20284;-83
2022/01/06 05:52:02;;;;;;;5.97;2.53;;;;;;;2.17;70.51;97936.25;6082003;23;20015;-84
2022/01/06 05:54:28;;;;;;;6.15;2.40;;;;;;;1.09;70.32;97772.59;6025992;23;20066;-85
2022/01/06 05:56:54;;;;;;;4.45;1.45;;;;;;;2.16;70.11;97947.38;6074589;23;20019;-84
2022/01/06 05:59:20;;;;;;;4.97;1.60;;;;;;;1.04;70.25;97772.56;5993990;23;1352151;-84
2022/01/06 06:01:46;;;;;;;4.32;2.05;;;;;;;2.04;70.07;97908.94;6052586;23;20124;-83
2022/01/06 06:04:14;;;;;;;5.20;1.67;;;;;;;1.13;70.59;97766.56;6051488;23;20023;-84
2022/01/06 06:06:40;;;;;;;3.88;1.90;;;;;;;1.64;69.72;97853.53;6048436;23;20023;-83
2022/01/06 06:09:06;;;;;;;3.50;2.00;;;;;;;1.94;70.57;97877.34;6047428;23;20019;-81
2022/01/06 06:11:36;;;;;;;7.78;1.75;;;;;;;2.05;70.41;97890.09;6069904;23;20023;-83
2022/01/06 06:14:02;;;;;;;6.22;2.00;;;;;;;2.03;69.99;97879.88;6025369;23;20023;-84
2022/01/06 06:16:28;;;;;;;3.83;2.05;;;;;;;0.89;70.07;97702.63;6001318;23;20165;-85
2022/01/06 06:18:54;;;;;;;4.82;2.58;;;;;;;1.55;69.87;97807.41;6030152;23;20078;-82
2022/01/06 06:21:20;;;;;;;5.57;2.30;;;;;;;1.60;69.77;97816.78;6054412;23;20023;-84
2022/01/06 06:23:46;;;;;;;7.10;2.72;;;;;;;1.50;69.57;97810.00;6078903;23;20118;-84
2022/01/06 06:26:12;;;;;;;6.10;2.65;;;;;;;1.14;69.59;97724.72;6020475;23;20066;-83
2022/01/06 06:28:38;;;;;;;8.40;3.30;;;;;;;2.20;69.53;97900.31;6054261;23;20027;-84
2022/01/06 06:31:07;;;;;;;6.10;2.95;;;;;;;2.15;69.27;97886.66;6093865;23;20010;-82
2022/01/06 06:33:33;;;;;;;5.70;2.90;;;;;;;1.72;69.14;97795.38;6075983;23;20022;-83
2022/01/06 06:35:58;;;;;;;6.57;2.97;;;;;;;2.29;69.25;97906.22;6055983;23;20018;-84
2022/01/06 06:38:24;;;;;;;8.70;2.70;;;;;;;2.01;69.26;97837.97;6089447;23;20018;-83
2022/01/06 06:40:50;;;;;;;5.15;3.08;;;;;;;1.13;69.41;97688.00;6088013;23;20082;-85
2022/01/06 06:43:16;;;;;;;5.38;3.38;;;;;;;2.26;69.22;97864.31;6031821;23;20023;-84
2022/01/06 06:45:43;;;;;;;5.15;3.25;;;;;;;2.37;69.36;97871.13;6077969;23;20015;-87
2022/01/06 06:48:10;;;;;;;5.88;3.83;;;;;;;2.18;68.58;97826.72;6104298;23;20018;-85
2022/01/06 06:50:36;;;;;;;7.07;3.80;;;;;;;2.55;69.14;97891.53;6079584;23;20019;-84
2022/01/06 06:53:07;;;;;;;6.03;3.72;;;;;;;2.45;68.76;97871.06;6053918;23;20022;-85
2022/01/06 06:55:34;;;;;;;8.63;3.97;;;;;;;1.73;69.17;97747.50;6073962;23;20181;-84
2022/01/06 06:58:01;;;;;;;7.70;3.67;;;;;;;2.60;68.82;97878.63;6074206;23;20021;-85
2022/01/06 07:00:27;;;;;;;7.38;4.05;;;;;;;1.63;68.67;97723.63;6049194;23;20093;-83
2022/01/06 07:02:55;;;;;;;8.50;3.95;;;;;;;2.40;68.68;97871.09;6050758;23;20350;-82
2022/01/06 07:05:21;;;;;;;8.50;4.05;;;;;;;2.14;68.77;97814.78;6073288;23;20019;-85
2022/01/06 07:07:47;;;;;;;6.57;3.72;;;;;;;2.40;68.30;97871.94;6073730;23;20022;-83
2022/01/06 07:10:14;;;;;;;8.75;4.20;;;;;;;2.70;68.54;97907.69;6073498;23;20965;-85
2022/01/06 07:12:47;;;;;;;8.30;3.67;;;;;;;2.39;68.68;97857.38;6073039;23;20082;-83
2022/01/06 07:15:14;;;;;;;9.20;4.20;;;;;;;2.06;68.63;97805.44;6075046;23;20015;-84
2022/01/06 07:17:41;;;;;;;7.47;3.97;;;;;;;1.79;68.32;97770.53;6074329;23;20026;-82
2022/01/06 07:20:08;;;;;;;8.52;4.57;;;;;;;2.37;68.59;97869.38;6072876;23;20413;-83
2022/01/06 07:22:38;;;;;;;8.02;3.83;;;;;;;2.31;68.46;97872.00;6084729;23;20015;-84
2022/01/06 07:25:16;;;;;;;6.97;4.03;;;;;;;1.52;68.65;97736.50;6070371;23;20521;-83
2022/01/06 07:27:44;;;;;;;10.30;4.30;;;;;;;2.71;69.45;97932.50;6071808;23;20027;-83
2022/01/06 07:30:10;;;;;;;7.97;4.10;;;;;;;2.14;68.73;97820.78;6107210;23;20045;-83
2022/01/06 07:32:50;;;;;;;9.00;4.45;;;;;;;1.98;69.08;97820.03;6055986;23;20017;-82
2022/01/06 07:35:21;;;;;;;7.35;4.68;;;;;;;1.72;68.66;97774.84;6066071;23;20002;-82
2022/01/06 07:37:50;;;;;;;8.50;5.33;;;;;;;2.61;68.92;97911.16;6124847;23;20025;-80
2022/01/06 07:40:20;;;;;;;7.15;4.35;;;;;;;2.24;68.75;97842.94;6088444;23;20017;-84
2022/01/06 07:42:47;;;;;;;9.55;4.85;;;;;;;2.24;68.60;97845.50;6062438;23;20050;-83
2022/01/06 07:45:19;;;;;;;7.20;4.60;;;;;;;2.14;68.52;97840.44;6109826;23;20021;-84
2022/01/06 07:48:03;;;;;;;9.93;5.05;;;;;;;2.76;68.30;97929.91;6109029;23;20022;-83
2022/01/06 07:50:34;;;;;;;8.65;4.78;;;;;;;1.35;68.68;97703.28;6138260;23;20022;-85
2022/01/06 07:53:02;;;;;;;10.93;4.68;;;;;;;1.94;68.80;97790.97;6112259;23;20022;-83
2022/01/06 07:55:31;;;;;;;10.75;5.28;;;;;;;2.13;68.95;97837.03;6140114;23;20073;-84
2022/01/06 07:57:58;;;;;;;8.57;4.78;;;;;;;2.78;68.72;97912.75;6142959;23;20017;-82
2022/01/06 08:00:27;;;;;;;9.70;5.15;;;;;;;1.89;68.72;97761.06;6114653;23;20117;-84
2022/01/06 08:02:54;;;;;;;9.50;4.75;;;;;;;2.82;68.58;97915.31;6118000;23;20022;-84
2022/01/06 08:05:25;;;;;;;9.13;4.88;;;;;;;1.57;69.15;97705.72;6107688;23;20026;-88
2022/01/06 08:07:53;;;;;;;6.78;4.40;;;;;;;2.35;68.95;97831.75;6086487;23;20018;-83
2022/01/06 08:10:19;;;;;;;10.23;5.30;;;;;;;2.62;69.26;97863.25;6124948;23;20049;-82
2022/01/06 08:12:45;;;;;;;9.85;4.90;;;;;;;2.44;69.11;97823.13;6096795;23;20415;-82
2022/01/06 08:15:11;;;;;;;8.85;4.88;;;;;;;2.81;68.88;97876.75;6098708;23;20109;-82
2022/01/06 08:17:37;;;;;;;8.95;4.65;;;;;;;2.32;68.51;97801.81;6098376;23;20456;-83
2022/01/06 08:20:08;;;;;;;10.07;5.18;;;;;;;2.68;69.03;97846.06;6097374;23;20696;-82
2022/01/06 08:22:35;;;;;;;9.88;5.00;;;;;;;2.15;68.69;97749.78;6075606;23;20019;-81
2022/01/06 08:25:06;;;;;;;7.88;4.97;;;;;;;2.92;68.74;97910.94;6074328;23;20078;-83
2022/01/06 08:27:33;;;;;;;8.93;5.07;;;;;;;2.98;68.75;97892.88;6097721;23;20018;-83
2022/01/06 08:29:59;;;;;;;12.30;5.72;;;;;;;2.56;68.78;97825.59;6098697;23;20018;-81
2022/01/06 08:32:25;;;;;;;10.13;5.18;;;;;;;2.54;68.88;97829.88;6098501;23;20097;-81
2022/01/06 08:34:51;;;;;;;9.60;5.60;;;;;;;2.95;69.01;97894.63;6074499;23;20022;-82
2022/01/06 08:37:17;;;;;;;10.02;6.07;;;;;;;2.97;69.09;97901.47;6099170;23;20018;-82
2022/01/06 08:39:44;;;;;;;8.50;5.22;;;;;;;2.79;68.83;97861.38;6075256;23;20037;-82
2022/01/06 08:42:12;;;;;;;9.77;5.55;;;;;;;2.93;69.05;97866.41;6081934;23;20033;-82
2022/01/06 08:44:52;;;;;;;9.65;5.32;;;;;;;2.52;68.83;97817.06;6106381;23;20052;-86
2022/01/06 08:47:36;;;;;;;8.88;5.18;;;;;;;2.85;69.64;97856.19;6142794;23;20010;-87
2022/01/06 08:50:12;;;;;;;;;;;;;;;3.11;68.75;97885.06;6087765;23;20588;-86
2022/01/06 08:53:18;;;;;;;11.80;5.57;;;;;;;1.82;69.08;97682.47;6079893;23;19912;-84
2022/01/06 08:56:12;;;;;;;9.73;5.40;;;;;;;3.22;69.07;97887.53;6080782;23;20033;-85
2022/01/06 09:04:10;;;;;;;7.30;4.47;;;;;;;3.24;68.86;97886.66;6086405;23;20472;-86
2022/01/06 09:08:22;;;;;;;;;;;;;;;;;;;;;
2022/01/06 09:12:11;;;;;;;7.60;4.00;;;;;;;3.00;68.27;97826.91;5921971;24;20022;-86
2022/01/06 09:14:56;;;;;;;10.57;4.60;;;;;;;2.57;68.46;97760.53;5936129;23;20024;-85
2022/01/06 09:17:35;;;;;;;7.10;4.13;;;;;;;1.91;68.38;97633.66;6107194;23;20018;-86
2022/01/06 09:20:24;;;;;;;9.15;4.28;;;;;;;3.05;68.07;97818.31;6085145;23;20352;-85
2022/01/06 09:23:22;;;;;;;7.43;4.18;;;;;;;3.22;68.46;97833.56;6103060;23;20018;-86
2022/01/06 09:26:12;;;;;;;;;;;;;;;3.51;68.84;97876.94;6089460;23;20053;-86
2022/01/06 09:28:44;;;;;;;7.30;4.28;;;;;;;2.20;67.83;97678.72;6083244;23;19941;-88
2022/01/06 09:31:42;;;;;;;7.53;4.18;;;;;;;3.52;68.37;97888.09;6091876;23;20034;-81
2022/01/06 09:34:12;;;;;;;8.35;4.47;;;;;;;2.03;68.12;97646.38;6083918;23;20022;-85
2022/01/06 09:36:50;;;;;;;6.28;4.20;;;;;;;3.39;67.95;97859.09;6080124;23;20026;-87
2022/01/06 09:39:16;;;;;;;8.32;4.38;;;;;;;3.43;68.19;97876.16;6076261;23;20460;-79
2022/01/06 09:41:42;;;;;;;9.52;4.32;;;;;;;3.39;68.32;97869.38;6093556;23;20477;-78
2022/01/06 09:44:08;;;;;;;6.70;4.18;;;;;;;3.34;68.69;97876.28;6070403;23;20062;-81
2022/01/06 09:46:34;;;;;;;7.88;3.95;;;;;;;3.28;68.17;97880.63;6095468;23;20046;-80
2022/01/06 09:49:00;;;;;;;8.38;5.10;;;;;;;3.12;68.57;97863.66;6095222;23;20018;-80
2022/01/06 09:51:28;;;;;;;7.13;4.20;;;;;;;3.15;68.90;97866.19;6095897;23;20022;-78
2022/01/06 09:53:57;;;;;;;10.57;4.57;;;;;;;3.19;68.89;97865.31;6052721;23;20089;-80
2022/01/06 09:56:24;;;;;;;9.05;4.88;;;;;;;3.22;68.58;97864.41;6060060;23;20074;-78
2022/01/06 09:58:50;;;;;;;7.38;4.32;;;;;;;3.09;68.19;97846.53;6065792;23;20018;-80
2022/01/06 10:01:15;;;;;;;9.48;4.60;;;;;;;3.16;68.60;97852.47;6127395;23;20128;-76
2022/01/06 10:03:48;;;;;;;7.90;4.05;;;;;;;3.20;68.67;97863.56;6122529;23;20464;-77
2022/01/06 10:06:18;;;;;;;10.07;4.57;;;;;;;3.08;68.69;97831.13;6102406;23;20022;-80
2022/01/06 10:08:52;;;;;;;7.88;4.10;;;;;;;3.33;68.87;97870.28;6128686;23;20053;-77
2022/01/06 10:11:24;;;;;;;8.00;4.05;;;;;;;3.22;68.60;97838.69;6101426;23;20641;-79
2022/01/06 10:14:04;;;;;;;8.25;4.07;;;;;;;3.33;68.83;97864.28;6101655;23;20022;-79
2022/01/06 10:16:32;;;;;;;6.45;3.85;;;;;;;3.15;68.65;97835.34;6054950;23;20025;-83
2022/01/06 10:19:09;;;;;;;7.45;4.30;;;;;;;3.31;68.80;97861.75;6107583;23;20020;-79
2022/01/06 10:21:47;;;;;;;7.80;4.15;;;;;;;3.38;68.66;97852.25;6125766;23;20022;-82
2022/01/06 10:24:19;;;;;;;7.15;4.20;;;;;;;3.12;68.72;97830.25;6100681;23;20100;-78
2022/01/06 10:26:51;;;;;;;7.57;3.95;;;;;;;3.43;68.59;97853.91;6101201;23;20021;-83
2022/01/06 10:29:19;;;;;;;8.15;3.80;;;;;;;3.23;68.92;97832.69;6102199;23;20053;-85
2022/01/06 10:31:45;;;;;;;9.75;4.32;;;;;;;3.13;68.60;97812.22;6077248;23;20749;-80
2022/01/06 10:34:11;;;;;;;7.43;4.30;;;;;;;3.39;69.06;97867.66;6104752;23;20014;-83
2022/01/06 10:36:39;;;;;;;8.77;3.85;;;;;;;3.17;68.53;97828.47;6078080;23;20013;-81
2022/01/06 10:39:08;;;;;;;6.25;4.55;;;;;;;3.36;68.93;97862.53;6129100;23;20021;-80
2022/01/06 10:41:39;;;;;;;8.77;4.53;;;;;;;3.34;68.61;97859.13;6078890;23;20022;-80
2022/01/06 10:44:10;;;;;;;8.40;4.82;;;;;;;3.36;69.26;97848.84;6128739;23;20018;-81
2022/01/06 10:46:44;;;;;;;7.70;4.47;;;;;;;3.30;69.03;97839.47;6131775;23;20013;-79
2022/01/06 10:49:15;;;;;;;9.00;3.97;;;;;;;3.32;69.45;97835.16;6111761;23;20069;-79
2022/01/06 10:51:49;;;;;;;6.15;3.53;;;;;;;3.24;69.11;97842.94;6142587;23;20021;-80
2022/01/06 10:54:24;;;;;;;8.25;4.35;;;;;;;3.21;68.85;97842.13;6080574;23;20459;-81
2022/01/06 10:57:12;;;;;;;7.57;4.15;;;;;;;3.20;68.81;97838.69;6078364;23;20018;-78
2022/01/06 10:59:38;;;;;;;10.48;4.25;;;;;;;3.06;69.67;97810.59;6127532;23;20025;-80
2022/01/06 11:02:05;;;;;;;7.30;4.18;;;;;;;3.12;68.84;97830.25;6127484;23;20368;-79
2022/01/06 11:04:31;;;;;;;5.57;3.47;;;;;;;3.19;69.78;97844.75;6107509;23;20018;-81
2022/01/06 11:06:58;;;;;;;9.40;3.92;;;;;;;3.01;69.47;97822.63;6115507;23;20026;-79
2022/01/06 11:09:26;;;;;;;7.57;4.00;;;;;;;3.04;69.35;97820.03;6120427;23;20189;-83
2022/01/06 11:14:27;;;;;;;9.65;4.53;;;;;;;3.06;69.88;97863.69;6101640;23;20089;-80
2022/01/06 11:16:53;;;;;;;7.35;4.30;;;;;;;2.81;69.74;97820.25;6100996;23;20409;-79
2022/01/06 11:19:27;;;;;;;9.10;3.88;;;;;;;2.94;69.75;97842.41;6102070;23;20418;-79
2022/01/06 11:21:59;;;;;;;7.55;3.80;;;;;;;2.97;70.08;97841.50;6126370;23;20045;-79
2022/01/06 11:24:27;;;;;;;8.20;4.43;;;;;;;2.78;69.71;97812.56;6101713;23;20018;-78
2022/01/06 11:27:06;;;;;;;5.47;3.17;;;;;;;2.58;69.69;97793.06;6126802;23;20049;-79
2022/01/06 11:29:35;;;;;;;8.10;4.00;;;;;;;2.91;70.13;97851.84;6126927;23;20018;-78
2022/01/06 11:32:04;;;;;;;5.05;3.40;;;;;;;2.87;69.75;97851.03;6101606;23;20219;-80
2022/01/06 11:34:37;;;;;;;6.07;3.13;;;;;;;2.79;69.45;97851.09;6077519;23;20041;-79
2022/01/06 11:37:14;;;;;;;7.43;3.42;;;;;;;2.73;69.89;97848.56;6101340;23;20324;-81
2022/01/06 11:39:41;;;;;;;5.70;3.60;;;;;;;2.54;70.04;97841.03;6102276;23;20052;-82
2022/01/06 11:42:16;;;;;;;7.45;3.80;;;;;;;2.54;69.58;97853.00;6127517;23;20486;-79
2022/01/06 11:44:53;;;;;;;6.13;3.20;;;;;;;2.48;70.31;97853.06;6125462;23;20024;-81
2022/01/06 11:47:31;;;;;;;8.10;3.97;;;;;;;2.15;70.33;97809.66;6106929;23;20021;-80
2022/01/06 11:50:08;;;;;;;9.85;3.75;;;;;;;2.41;70.23;97863.38;6134481;23;20395;-78
2022/01/06 11:52:33;;;;;;;7.03;4.28;;;;;;;2.26;70.14;97850.66;6112498;23;20018;-81
2022/01/06 11:55:04;;;;;;;6.63;3.95;;;;;;;2.21;70.38;97852.38;6107111;23;20014;-81
2022/01/06 11:57:31;;;;;;;7.15;4.03;;;;;;;2.15;70.37;97844.72;6139028;23;20044;-80
2022/01/06 12:00:13;;;;;;;7.63;4.03;;;;;;;2.30;70.49;97866.88;6144002;23;20017;-80
2022/01/06 12:02:39;;;;;;;8.68;4.28;;;;;;;2.28;70.56;97860.88;6119282;23;20034;-83
2022/01/06 12:05:05;;;;;;;11.15;4.60;;;;;;;2.38;70.95;97860.81;6070763;23;20018;-81
2022/01/06 12:07:31;;;;;;;8.23;4.80;;;;;;;2.26;70.92;97833.53;6143187;23;20048;-78
2022/01/06 12:10:06;;;;;;;7.13;4.15;;;;;;;2.50;70.65;97856.47;6120616;23;20024;-81
2022/01/06 12:12:37;;;;;;;9.45;4.10;;;;;;;2.53;70.85;97859.03;6145475;23;20085;-80
2022/01/06 12:15:12;;;;;;;8.13;4.90;;;;;;;2.54;71.28;97846.16;6096689;23;20041;-82